Terminal Aerodrome Forecast
Issued by NWS

Home | Current Version | Previous Version | Text Only | Print | Product List | Glossary On
Versions: 1 2 3 4 5 6 7 8 9 10 11 12 13 14 15 16 17
000
FTUS41 KBOX 041140
TAFBED
TAF
KBED 041140Z 0412/0512 33008KT P6SM OVC035
     FM041400 32005KT P6SM SCT060
     FM050800 00000KT P6SM BKN140
     FM050900 00000KT P6SM VCSH BKN140=

USA.gov is the U.S. government's official web portal to all federal, state and local government web resources and services.